sensor_id;sensor_type;location;lat;lon;timestamp;temperature;humidity
20885;DHT22;10602;48.000;9.654;2023-03-15T00:01:20;1.40;99.90
20885;DHT22;10602;48.000;9.654;2023-03-15T00:03:49;1.40;99.90
20885;DHT22;10602;48.000;9.654;2023-03-15T00:06:17;1.40;99.90
20885;DHT22;10602;48.000;9.654;2023-03-15T00:08:44;1.50;99.90
20885;DHT22;10602;48.000;9.654;2023-03-15T00:11:14;1.50;99.90
20885;DHT22;10602;48.000;9.654;2023-03-15T00:13:42;1.50;99.90
20885;DHT22;10602;48.000;9.654;2023-03-15T00:16:11;1.60;99.90
20885;DHT22;10602;48.000;9.654;2023-03-15T00:18:40;1.60;99.90
20885;DHT22;10602;48.000;9.654;2023-03-15T00:21:08;1.60;99.90
20885;DHT22;10602;48.000;9.654;2023-03-15T00:23:35;1.60;99.90
20885;DHT22;10602;48.000;9.654;2023-03-15T00:26:03;1.60;99.90
20885;DHT22;10602;48.000;9.654;2023-03-15T00:28:30;1.70;99.90
20885;DHT22;10602;48.000;9.654;2023-03-15T00:31:13;1.70;99.90
20885;DHT22;10602;48.000;9.654;2023-03-15T00:33:40;1.70;99.90
20885;DHT22;10602;48.000;9.654;2023-03-15T00:36:08;1.70;99.90
20885;DHT22;10602;48.000;9.654;2023-03-15T00:38:37;1.70;99.90
20885;DHT22;10602;48.000;9.654;2023-03-15T00:41:11;1.70;99.90
20885;DHT22;10602;48.000;9.654;2023-03-15T00:43:38;1.70;99.90
20885;DHT22;10602;48.000;9.654;2023-03-15T00:46:06;1.70;99.90
20885;DHT22;10602;48.000;9.654;2023-03-15T00:48:33;1.70;99.90
20885;DHT22;10602;48.000;9.654;2023-03-15T00:51:03;1.70;99.90
20885;DHT22;10602;48.000;9.654;2023-03-15T00:53:30;1.70;99.90
20885;DHT22;10602;48.000;9.654;2023-03-15T00:56:02;1.60;99.90
20885;DHT22;10602;48.000;9.654;2023-03-15T00:58:27;1.50;99.90
20885;DHT22;10602;48.000;9.654;2023-03-15T01:00:55;1.50;99.90
20885;DHT22;10602;48.000;9.654;2023-03-15T01:03:22;1.50;99.90
20885;DHT22;10602;48.000;9.654;2023-03-15T01:05:49;1.40;99.90
20885;DHT22;10602;48.000;9.654;2023-03-15T01:08:17;1.40;99.90
20885;DHT22;10602;48.000;9.654;2023-03-15T01:10:45;1.30;99.90
20885;DHT22;10602;48.000;9.654;2023-03-15T01:13:12;1.30;99.90
20885;DHT22;10602;48.000;9.654;2023-03-15T01:15:44;1.30;99.90
20885;DHT22;10602;48.000;9.654;2023-03-15T01:18:09;1.20;99.90
20885;DHT22;10602;48.000;9.654;2023-03-15T01:20:36;1.20;99.40
20885;DHT22;10602;48.000;9.654;2023-03-15T01:23:03;1.20;99.90
20885;DHT22;10602;48.000;9.654;2023-03-15T01:25:31;1.10;99.90
20885;DHT22;10602;48.000;9.654;2023-03-15T01:27:58;1.10;91.70
20885;DHT22;10602;48.000;9.654;2023-03-15T01:30:26;1.10;95.70
20885;DHT22;10602;48.000;9.654;2023-03-15T01:32:53;1.00;93.20
20885;DHT22;10602;48.000;9.654;2023-03-15T01:35:21;1.10;97.30
20885;DHT22;10602;48.000;9.654;2023-03-15T01:37:49;1.00;98.50
20885;DHT22;10602;48.000;9.654;2023-03-15T01:40:17;1.00;99.00
20885;DHT22;10602;48.000;9.654;2023-03-15T01:48:32;1.00;99.90
20885;DHT22;10602;48.000;9.654;2023-03-15T01:50:56;1.00;99.90
20885;DHT22;10602;48.000;9.654;2023-03-15T01:53:25;1.00;94.40
20885;DHT22;10602;48.000;9.654;2023-03-15T01:55:54;1.10;94.90
20885;DHT22;10602;48.000;9.654;2023-03-15T01:58:24;1.10;90.50
20885;DHT22;10602;48.000;9.654;2023-03-15T02:00:53;1.00;84.70
20885;DHT22;10602;48.000;9.654;2023-03-15T02:03:23;1.10;70.90
20885;DHT22;10602;48.000;9.654;2023-03-15T02:05:57;1.10;51.30
20885;DHT22;10602;48.000;9.654;2023-03-15T02:08:27;1.10;51.30
20885;DHT22;10602;48.000;9.654;2023-03-15T02:10:56;1.10;42.30
20885;DHT22;10602;48.000;9.654;2023-03-15T02:13:28;1.10;33.70
20885;DHT22;10602;48.000;9.654;2023-03-15T02:15:56;1.20;29.60
20885;DHT22;10602;48.000;9.654;2023-03-15T02:18:25;1.10;33.20
20885;DHT22;10602;48.000;9.654;2023-03-15T02:21:06;1.10;35.90
20885;DHT22;10602;48.000;9.654;2023-03-15T02:23:32;1.10;31.90
20885;DHT22;10602;48.000;9.654;2023-03-15T02:28:46;1.10;36.00
20885;DHT22;10602;48.000;9.654;2023-03-15T02:31:13;1.00;36.40
20885;DHT22;10602;48.000;9.654;2023-03-15T02:33:48;1.00;44.00
20885;DHT22;10602;48.000;9.654;2023-03-15T02:36:17;1.00;42.40
20885;DHT22;10602;48.000;9.654;2023-03-15T02:38:45;1.00;44.80
20885;DHT22;10602;48.000;9.654;2023-03-15T02:41:16;1.10;44.40
20885;DHT22;10602;48.000;9.654;2023-03-15T02:43:44;1.00;41.00
20885;DHT22;10602;48.000;9.654;2023-03-15T02:46:12;1.00;42.90
20885;DHT22;10602;48.000;9.654;2023-03-15T02:48:42;1.10;42.80
20885;DHT22;10602;48.000;9.654;2023-03-15T02:51:22;1.00;31.40
20885;DHT22;10602;48.000;9.654;2023-03-15T02:53:50;1.10;41.30
20885;DHT22;10602;48.000;9.654;2023-03-15T02:56:17;1.00;34.10
20885;DHT22;10602;48.000;9.654;2023-03-15T02:58:45;1.00;38.20
20885;DHT22;10602;48.000;9.654;2023-03-15T03:01:14;1.00;40.70
20885;DHT22;10602;48.000;9.654;2023-03-15T03:03:43;1.00;38.10
20885;DHT22;10602;48.000;9.654;2023-03-15T03:06:11;0.90;38.40
20885;DHT22;10602;48.000;9.654;2023-03-15T03:08:39;0.80;35.90
20885;DHT22;10602;48.000;9.654;2023-03-15T03:11:07;0.80;38.00
20885;DHT22;10602;48.000;9.654;2023-03-15T03:13:34;0.70;20.30
20885;DHT22;10602;48.000;9.654;2023-03-15T03:16:02;0.70;12.00
20885;DHT22;10602;48.000;9.654;2023-03-15T03:18:30;0.70;4.30
20885;DHT22;10602;48.000;9.654;2023-03-15T03:21:00;0.70;9.70
20885;DHT22;10602;48.000;9.654;2023-03-15T03:23:28;0.70;1.70
20885;DHT22;10602;48.000;9.654;2023-03-15T03:25:57;0.80;11.00
20885;DHT22;10602;48.000;9.654;2023-03-15T03:28:26;0.80;17.50
20885;DHT22;10602;48.000;9.654;2023-03-15T03:30:55;0.80;17.90
20885;DHT22;10602;48.000;9.654;2023-03-15T03:33:24;0.80;22.90
20885;DHT22;10602;48.000;9.654;2023-03-15T03:35:51;0.80;26.00
20885;DHT22;10602;48.000;9.654;2023-03-15T03:38:19;0.80;21.10
20885;DHT22;10602;48.000;9.654;2023-03-15T03:40:47;0.70;16.80
20885;DHT22;10602;48.000;9.654;2023-03-15T03:43:14;0.70;8.40
20885;DHT22;10602;48.000;9.654;2023-03-15T03:45:42;0.70;19.50
20885;DHT22;10602;48.000;9.654;2023-03-15T03:48:09;0.70;7.10
20885;DHT22;10602;48.000;9.654;2023-03-15T03:50:38;0.60;1.00
20885;DHT22;10602;48.000;9.654;2023-03-15T03:53:08;0.60;1.00
20885;DHT22;10602;48.000;9.654;2023-03-15T03:55:37;0.50;1.00
20885;DHT22;10602;48.000;9.654;2023-03-15T03:58:04;0.40;1.00
20885;DHT22;10602;48.000;9.654;2023-03-15T04:00:32;0.30;1.00
20885;DHT22;10602;48.000;9.654;2023-03-15T04:03:00;0.30;2.80
20885;DHT22;10602;48.000;9.654;2023-03-15T04:05:29;0.20;3.60
20885;DHT22;10602;48.000;9.654;2023-03-15T04:07:56;0.10;1.00
20885;DHT22;10602;48.000;9.654;2023-03-15T04:10:24;0.10;1.00
20885;DHT22;10602;48.000;9.654;2023-03-15T04:12:57;0.10;7.00
20885;DHT22;10602;48.000;9.654;2023-03-15T04:15:26;0.00;20.10
20885;DHT22;10602;48.000;9.654;2023-03-15T04:17:54;0.00;37.10
20885;DHT22;10602;48.000;9.654;2023-03-15T04:20:25;0.00;51.10
20885;DHT22;10602;48.000;9.654;2023-03-15T04:22:54;-0.10;59.10
20885;DHT22;10602;48.000;9.654;2023-03-15T04:25:21;-0.10;63.50
20885;DHT22;10602;48.000;9.654;2023-03-15T04:27:51;-0.10;68.10
20885;DHT22;10602;48.000;9.654;2023-03-15T04:30:26;-0.20;74.80
20885;DHT22;10602;48.000;9.654;2023-03-15T04:32:55;-0.20;84.10
20885;DHT22;10602;48.000;9.654;2023-03-15T04:35:33;-0.20;87.80
20885;DHT22;10602;48.000;9.654;2023-03-15T04:38:02;-0.20;88.00
20885;DHT22;10602;48.000;9.654;2023-03-15T04:40:31;-0.30;90.80
20885;DHT22;10602;48.000;9.654;2023-03-15T04:43:02;-0.30;91.10
20885;DHT22;10602;48.000;9.654;2023-03-15T04:45:31;-0.40;91.50
20885;DHT22;10602;48.000;9.654;2023-03-15T04:47:59;-0.40;93.00
20885;DHT22;10602;48.000;9.654;2023-03-15T04:50:28;-0.40;99.90
20885;DHT22;10602;48.000;9.654;2023-03-15T04:52:57;-0.50;99.90
20885;DHT22;10602;48.000;9.654;2023-03-15T04:55:25;-0.50;99.90
20885;DHT22;10602;48.000;9.654;2023-03-15T04:57:54;-0.60;99.90
20885;DHT22;10602;48.000;9.654;2023-03-15T05:00:22;-0.70;99.90
20885;DHT22;10602;48.000;9.654;2023-03-15T05:02:50;-0.70;99.90
20885;DHT22;10602;48.000;9.654;2023-03-15T05:05:21;-0.80;99.90
20885;DHT22;10602;48.000;9.654;2023-03-15T05:07:49;-0.90;99.90
20885;DHT22;10602;48.000;9.654;2023-03-15T05:10:18;-0.90;99.90
20885;DHT22;10602;48.000;9.654;2023-03-15T05:12:45;-1.00;99.90
20885;DHT22;10602;48.000;9.654;2023-03-15T05:15:16;-1.00;99.90
20885;DHT22;10602;48.000;9.654;2023-03-15T05:17:43;-1.00;99.90
20885;DHT22;10602;48.000;9.654;2023-03-15T05:20:14;-1.00;99.90
20885;DHT22;10602;48.000;9.654;2023-03-15T05:22:42;-0.90;99.90
20885;DHT22;10602;48.000;9.654;2023-03-15T05:25:10;-0.90;99.90
20885;DHT22;10602;48.000;9.654;2023-03-15T05:27:38;-0.90;99.90
20885;DHT22;10602;48.000;9.654;2023-03-15T05:30:06;-0.90;99.90
20885;DHT22;10602;48.000;9.654;2023-03-15T05:32:34;-0.90;99.90
20885;DHT22;10602;48.000;9.654;2023-03-15T05:35:04;-0.90;99.90
20885;DHT22;10602;48.000;9.654;2023-03-15T05:37:33;-1.00;99.90
20885;DHT22;10602;48.000;9.654;2023-03-15T05:40:01;-1.00;99.90
20885;DHT22;10602;48.000;9.654;2023-03-15T05:42:29;-1.00;99.90
20885;DHT22;10602;48.000;9.654;2023-03-15T05:44:57;-1.00;99.90
20885;DHT22;10602;48.000;9.654;2023-03-15T05:47:25;-1.10;99.90
20885;DHT22;10602;48.000;9.654;2023-03-15T05:49:52;-1.10;99.90
20885;DHT22;10602;48.000;9.654;2023-03-15T05:52:20;-1.10;99.90
20885;DHT22;10602;48.000;9.654;2023-03-15T05:54:48;-1.10;99.90
20885;DHT22;10602;48.000;9.654;2023-03-15T05:57:15;-1.00;99.90
20885;DHT22;10602;48.000;9.654;2023-03-15T05:59:43;-1.00;99.90
20885;DHT22;10602;48.000;9.654;2023-03-15T06:02:10;-0.90;99.90
20885;DHT22;10602;48.000;9.654;2023-03-15T06:04:38;-0.80;88.90
20885;DHT22;10602;48.000;9.654;2023-03-15T06:07:05;-0.80;75.00
20885;DHT22;10602;48.000;9.654;2023-03-15T06:09:33;-0.70;70.30
20885;DHT22;10602;48.000;9.654;2023-03-15T06:12:00;-0.70;68.10
20885;DHT22;10602;48.000;9.654;2023-03-15T06:14:28;-0.70;67.70
20885;DHT22;10602;48.000;9.654;2023-03-15T06:16:56;-0.70;67.20
20885;DHT22;10602;48.000;9.654;2023-03-15T06:19:23;-0.70;68.90
20885;DHT22;10602;48.000;9.654;2023-03-15T06:21:51;-0.70;71.00
20885;DHT22;10602;48.000;9.654;2023-03-15T06:24:18;-0.70;72.70
20885;DHT22;10602;48.000;9.654;2023-03-15T06:26:46;-0.70;70.60
20885;DHT22;10602;48.000;9.654;2023-03-15T06:29:13;-0.50;57.90
20885;DHT22;10602;48.000;9.654;2023-03-15T06:31:42;-0.30;30.10
20885;DHT22;10602;48.000;9.654;2023-03-15T06:34:10;-0.10;13.80
20885;DHT22;10602;48.000;9.654;2023-03-15T06:36:37;0.10;1.00
20885;DHT22;10602;48.000;9.654;2023-03-15T06:39:05;0.30;1.00
20885;DHT22;10602;48.000;9.654;2023-03-15T06:41:32;0.60;1.00
20885;DHT22;10602;48.000;9.654;2023-03-15T06:44:00;0.80;1.00
20885;DHT22;10602;48.000;9.654;2023-03-15T06:46:27;1.00;1.00
20885;DHT22;10602;48.000;9.654;2023-03-15T06:48:55;1.20;1.00
20885;DHT22;10602;48.000;9.654;2023-03-15T06:51:22;1.40;99.90
20885;DHT22;10602;48.000;9.654;2023-03-15T06:53:50;1.50;1.00
20885;DHT22;10602;48.000;9.654;2023-03-15T06:56:17;1.70;1.00
20885;DHT22;10602;48.000;9.654;2023-03-15T06:58:45;1.80;1.00
20885;DHT22;10602;48.000;9.654;2023-03-15T07:01:13;2.00;1.00
20885;DHT22;10602;48.000;9.654;2023-03-15T07:03:41;2.20;1.00
20885;DHT22;10602;48.000;9.654;2023-03-15T07:06:09;2.50;1.00
20885;DHT22;10602;48.000;9.654;2023-03-15T07:08:36;2.60;1.00
20885;DHT22;10602;48.000;9.654;2023-03-15T07:11:04;2.70;1.00
20885;DHT22;10602;48.000;9.654;2023-03-15T07:13:31;2.60;1.00
20885;DHT22;10602;48.000;9.654;2023-03-15T07:15:59;2.50;1.00
20885;DHT22;10602;48.000;9.654;2023-03-15T07:18:28;2.60;99.90
20885;DHT22;10602;48.000;9.654;2023-03-15T07:20:59;2.70;1.00
20885;DHT22;10602;48.000;9.654;2023-03-15T07:23:28;2.80;99.90
20885;DHT22;10602;48.000;9.654;2023-03-15T07:25:56;2.90;99.90
20885;DHT22;10602;48.000;9.654;2023-03-15T07:28:25;3.10;1.00
20885;DHT22;10602;48.000;9.654;2023-03-15T07:30:57;3.30;99.90
20885;DHT22;10602;48.000;9.654;2023-03-15T07:33:26;3.40;99.90
20885;DHT22;10602;48.000;9.654;2023-03-15T07:35:54;3.40;99.90
20885;DHT22;10602;48.000;9.654;2023-03-15T07:38:24;3.40;99.90
20885;DHT22;10602;48.000;9.654;2023-03-15T07:40:52;3.50;1.00
20885;DHT22;10602;48.000;9.654;2023-03-15T07:43:19;3.50;1.00
20885;DHT22;10602;48.000;9.654;2023-03-15T07:45:47;3.70;1.00
20885;DHT22;10602;48.000;9.654;2023-03-15T07:48:15;3.80;1.00
20885;DHT22;10602;48.000;9.654;2023-03-15T07:50:43;4.30;1.00
20885;DHT22;10602;48.000;9.654;2023-03-15T07:53:11;4.40;99.90
20885;DHT22;10602;48.000;9.654;2023-03-15T07:55:39;4.90;99.90
20885;DHT22;10602;48.000;9.654;2023-03-15T07:58:06;5.00;1.00
20885;DHT22;10602;48.000;9.654;2023-03-15T08:00:34;5.20;1.00
20885;DHT22;10602;48.000;9.654;2023-03-15T08:03:01;5.50;1.00
20885;DHT22;10602;48.000;9.654;2023-03-15T08:05:29;6.00;1.00
20885;DHT22;10602;48.000;9.654;2023-03-15T08:07:56;6.40;1.00
20885;DHT22;10602;48.000;9.654;2023-03-15T08:10:24;6.30;1.00
20885;DHT22;10602;48.000;9.654;2023-03-15T08:12:52;5.70;1.00
20885;DHT22;10602;48.000;9.654;2023-03-15T08:15:20;5.40;1.00
20885;DHT22;10602;48.000;9.654;2023-03-15T08:17:48;5.80;1.00
20885;DHT22;10602;48.000;9.654;2023-03-15T08:20:16;5.70;1.00
20885;DHT22;10602;48.000;9.654;2023-03-15T08:22:48;5.80;1.00
20885;DHT22;10602;48.000;9.654;2023-03-15T08:25:15;5.90;1.00
20885;DHT22;10602;48.000;9.654;2023-03-15T08:27:43;6.20;1.00
20885;DHT22;10602;48.000;9.654;2023-03-15T08:30:12;6.00;1.00
20885;DHT22;10602;48.000;9.654;2023-03-15T08:32:42;5.90;1.00
20885;DHT22;10602;48.000;9.654;2023-03-15T08:35:11;6.00;1.00
20885;DHT22;10602;48.000;9.654;2023-03-15T08:37:39;6.30;1.00
20885;DHT22;10602;48.000;9.654;2023-03-15T08:40:07;6.30;1.00
20885;DHT22;10602;48.000;9.654;2023-03-15T08:42:36;6.50;1.00
20885;DHT22;10602;48.000;9.654;2023-03-15T08:45:05;6.40;1.00
20885;DHT22;10602;48.000;9.654;2023-03-15T08:47:34;6.50;1.00
20885;DHT22;10602;48.000;9.654;2023-03-15T08:50:02;6.70;1.00
20885;DHT22;10602;48.000;9.654;2023-03-15T08:52:31;6.90;1.00
20885;DHT22;10602;48.000;9.654;2023-03-15T08:54:59;7.30;1.00
20885;DHT22;10602;48.000;9.654;2023-03-15T08:57:26;7.50;1.00
20885;DHT22;10602;48.000;9.654;2023-03-15T08:59:55;7.30;1.00
20885;DHT22;10602;48.000;9.654;2023-03-15T09:02:23;7.10;1.00
20885;DHT22;10602;48.000;9.654;2023-03-15T09:04:50;7.00;1.00
20885;DHT22;10602;48.000;9.654;2023-03-15T09:07:18;7.70;1.00
20885;DHT22;10602;48.000;9.654;2023-03-15T09:09:47;8.70;1.00
20885;DHT22;10602;48.000;9.654;2023-03-15T09:12:17;9.20;1.00
20885;DHT22;10602;48.000;9.654;2023-03-15T09:14:45;9.30;1.00
20885;DHT22;10602;48.000;9.654;2023-03-15T09:17:13;9.10;1.00
20885;DHT22;10602;48.000;9.654;2023-03-15T09:19:41;8.70;1.00
20885;DHT22;10602;48.000;9.654;2023-03-15T09:22:08;8.70;1.00
20885;DHT22;10602;48.000;9.654;2023-03-15T09:24:37;8.40;1.00
20885;DHT22;10602;48.000;9.654;2023-03-15T09:27:05;8.40;1.00
20885;DHT22;10602;48.000;9.654;2023-03-15T09:29:33;7.70;1.00
20885;DHT22;10602;48.000;9.654;2023-03-15T09:32:00;6.80;1.00
20885;DHT22;10602;48.000;9.654;2023-03-15T09:34:28;6.90;1.00
20885;DHT22;10602;48.000;9.654;2023-03-15T09:36:55;7.50;1.00
20885;DHT22;10602;48.000;9.654;2023-03-15T09:39:23;7.60;1.00
20885;DHT22;10602;48.000;9.654;2023-03-15T09:41:52;7.70;1.00
20885;DHT22;10602;48.000;9.654;2023-03-15T09:44:34;7.90;1.00
20885;DHT22;10602;48.000;9.654;2023-03-15T09:47:04;8.40;1.00
20885;DHT22;10602;48.000;9.654;2023-03-15T09:49:40;8.90;1.00
20885;DHT22;10602;48.000;9.654;2023-03-15T09:52:29;9.60;1.00
20885;DHT22;10602;48.000;9.654;2023-03-15T09:54:58;9.50;1.00
20885;DHT22;10602;48.000;9.654;2023-03-15T09:57:39;9.50;1.00
20885;DHT22;10602;48.000;9.654;2023-03-15T10:00:04;10.00;1.00
20885;DHT22;10602;48.000;9.654;2023-03-15T10:02:34;10.70;1.00
20885;DHT22;10602;48.000;9.654;2023-03-15T10:05:11;10.00;1.00
20885;DHT22;10602;48.000;9.654;2023-03-15T10:07:39;9.60;1.00
20885;DHT22;10602;48.000;9.654;2023-03-15T10:10:13;9.70;1.00
20885;DHT22;10602;48.000;9.654;2023-03-15T10:12:37;10.20;1.00
20885;DHT22;10602;48.000;9.654;2023-03-15T10:15:29;10.70;1.00
20885;DHT22;10602;48.000;9.654;2023-03-15T10:18:11;10.90;1.00
20885;DHT22;10602;48.000;9.654;2023-03-15T10:20:41;10.60;1.00
20885;DHT22;10602;48.000;9.654;2023-03-15T10:23:14;10.50;1.00
20885;DHT22;10602;48.000;9.654;2023-03-15T10:25:44;10.30;1.00
20885;DHT22;10602;48.000;9.654;2023-03-15T10:28:21;9.80;1.00
20885;DHT22;10602;48.000;9.654;2023-03-15T10:30:47;9.40;1.00
20885;DHT22;10602;48.000;9.654;2023-03-15T10:33:22;10.80;1.00
20885;DHT22;10602;48.000;9.654;2023-03-15T10:35:48;10.60;1.00
20885;DHT22;10602;48.000;9.654;2023-03-15T10:38:18;11.10;1.00
20885;DHT22;10602;48.000;9.654;2023-03-15T10:40:52;11.20;1.00
20885;DHT22;10602;48.000;9.654;2023-03-15T10:43:31;10.80;1.00
20885;DHT22;10602;48.000;9.654;2023-03-15T10:48:33;9.30;1.00
20885;DHT22;10602;48.000;9.654;2023-03-15T10:51:30;9.40;1.00
20885;DHT22;10602;48.000;9.654;2023-03-15T10:54:15;8.80;1.00
20885;DHT22;10602;48.000;9.654;2023-03-15T10:59:20;9.90;1.00
20885;DHT22;10602;48.000;9.654;2023-03-15T11:04:46;11.90;1.00
20885;DHT22;10602;48.000;9.654;2023-03-15T11:07:09;12.30;1.00
20885;DHT22;10602;48.000;9.654;2023-03-15T11:09:44;12.40;1.00
20885;DHT22;10602;48.000;9.654;2023-03-15T11:12:31;11.80;1.00
20885;DHT22;10602;48.000;9.654;2023-03-15T11:15:03;11.70;1.00
20885;DHT22;10602;48.000;9.654;2023-03-15T11:17:33;12.30;1.00
20885;DHT22;10602;48.000;9.654;2023-03-15T11:20:24;13.30;1.00
20885;DHT22;10602;48.000;9.654;2023-03-15T11:22:36;13.00;1.00
20885;DHT22;10602;48.000;9.654;2023-03-15T11:25:07;11.20;1.00
20885;DHT22;10602;48.000;9.654;2023-03-15T11:27:33;10.70;1.00
20885;DHT22;10602;48.000;9.654;2023-03-15T11:30:01;10.80;1.00
20885;DHT22;10602;48.000;9.654;2023-03-15T11:32:31;11.50;1.00
20885;DHT22;10602;48.000;9.654;2023-03-15T11:35:31;11.10;1.00
20885;DHT22;10602;48.000;9.654;2023-03-15T11:37:50;11.60;1.00
20885;DHT22;10602;48.000;9.654;2023-03-15T11:40:20;11.60;1.00
20885;DHT22;10602;48.000;9.654;2023-03-15T11:43:05;11.90;1.00
20885;DHT22;10602;48.000;9.654;2023-03-15T11:45:57;13.50;1.00
20885;DHT22;10602;48.000;9.654;2023-03-15T11:48:17;13.80;1.00
20885;DHT22;10602;48.000;9.654;2023-03-15T11:50:41;11.80;99.90
20885;DHT22;10602;48.000;9.654;2023-03-15T11:53:15;11.00;99.90
20885;DHT22;10602;48.000;9.654;2023-03-15T11:55:39;11.10;99.90
20885;DHT22;10602;48.000;9.654;2023-03-15T11:58:34;11.70;1.00
20885;DHT22;10602;48.000;9.654;2023-03-15T12:01:04;12.80;1.00
20885;DHT22;10602;48.000;9.654;2023-03-15T12:03:43;12.10;99.90
20885;DHT22;10602;48.000;9.654;2023-03-15T12:08:51;11.30;99.90
20885;DHT22;10602;48.000;9.654;2023-03-15T12:16:44;12.10;99.90
20885;DHT22;10602;48.000;9.654;2023-03-15T12:19:18;12.00;99.90
20885;DHT22;10602;48.000;9.654;2023-03-15T12:21:51;12.10;99.90
20885;DHT22;10602;48.000;9.654;2023-03-15T12:24:29;12.90;99.90
20885;DHT22;10602;48.000;9.654;2023-03-15T12:27:03;12.40;99.90
20885;DHT22;10602;48.000;9.654;2023-03-15T12:29:33;11.20;99.90
20885;DHT22;10602;48.000;9.654;2023-03-15T12:34:50;11.80;99.90
20885;DHT22;10602;48.000;9.654;2023-03-15T12:37:27;13.50;99.90
20885;DHT22;10602;48.000;9.654;2023-03-15T12:59:02;12.20;99.90
20885;DHT22;10602;48.000;9.654;2023-03-15T13:01:30;12.40;99.90
20885;DHT22;10602;48.000;9.654;2023-03-15T13:03:59;10.70;99.90
20885;DHT22;10602;48.000;9.654;2023-03-15T13:06:48;9.70;99.90
20885;DHT22;10602;48.000;9.654;2023-03-15T13:17:29;8.90;99.90
20885;DHT22;10602;48.000;9.654;2023-03-15T13:19:48;9.10;99.90
20885;DHT22;10602;48.000;9.654;2023-03-15T13:22:23;9.60;99.90
20885;DHT22;10602;48.000;9.654;2023-03-15T13:25:10;10.10;99.90
20885;DHT22;10602;48.000;9.654;2023-03-15T13:27:58;10.30;99.90
20885;DHT22;10602;48.000;9.654;2023-03-15T13:30:40;10.60;99.90
20885;DHT22;10602;48.000;9.654;2023-03-15T13:33:25;10.80;99.90
20885;DHT22;10602;48.000;9.654;2023-03-15T13:35:56;10.50;99.90
20885;DHT22;10602;48.000;9.654;2023-03-15T13:38:38;11.30;99.90
20885;DHT22;10602;48.000;9.654;2023-03-15T13:41:05;11.90;99.90
20885;DHT22;10602;48.000;9.654;2023-03-15T13:43:36;11.30;99.90
20885;DHT22;10602;48.000;9.654;2023-03-15T13:48:33;9.50;99.90
20885;DHT22;10602;48.000;9.654;2023-03-15T13:51:23;9.00;99.90
20885;DHT22;10602;48.000;9.654;2023-03-15T13:53:54;8.40;99.90
20885;DHT22;10602;48.000;9.654;2023-03-15T13:56:33;8.30;99.90
20885;DHT22;10602;48.000;9.654;2023-03-15T13:59:02;8.50;99.90
20885;DHT22;10602;48.000;9.654;2023-03-15T14:01:31;8.60;99.90
20885;DHT22;10602;48.000;9.654;2023-03-15T14:04:04;8.90;99.90
20885;DHT22;10602;48.000;9.654;2023-03-15T14:06:31;9.20;99.90
20885;DHT22;10602;48.000;9.654;2023-03-15T14:09:06;9.50;99.90
20885;DHT22;10602;48.000;9.654;2023-03-15T14:22:03;8.40;99.90
20885;DHT22;10602;48.000;9.654;2023-03-15T14:24:35;8.30;99.90
20885;DHT22;10602;48.000;9.654;2023-03-15T14:27:06;8.40;99.90
20885;DHT22;10602;48.000;9.654;2023-03-15T14:29:36;8.20;99.90
20885;DHT22;10602;48.000;9.654;2023-03-15T14:32:07;7.60;99.90
20885;DHT22;10602;48.000;9.654;2023-03-15T14:34:43;7.80;99.90
20885;DHT22;10602;48.000;9.654;2023-03-15T14:37:34;7.60;99.90
20885;DHT22;10602;48.000;9.654;2023-03-15T14:42:43;7.60;99.90
20885;DHT22;10602;48.000;9.654;2023-03-15T14:45:12;7.80;99.90
20885;DHT22;10602;48.000;9.654;2023-03-15T14:47:45;7.80;99.90
20885;DHT22;10602;48.000;9.654;2023-03-15T14:50:15;7.70;99.90
20885;DHT22;10602;48.000;9.654;2023-03-15T14:52:44;7.60;1.00
20885;DHT22;10602;48.000;9.654;2023-03-15T14:55:15;7.70;99.90
20885;DHT22;10602;48.000;9.654;2023-03-15T14:57:43;7.90;99.90
20885;DHT22;10602;48.000;9.654;2023-03-15T15:00:13;8.20;99.90
20885;DHT22;10602;48.000;9.654;2023-03-15T15:02:43;8.30;1.00
20885;DHT22;10602;48.000;9.654;2023-03-15T15:07:43;8.50;99.90
20885;DHT22;10602;48.000;9.654;2023-03-15T15:10:11;8.40;99.90
20885;DHT22;10602;48.000;9.654;2023-03-15T15:12:39;8.50;99.90
20885;DHT22;10602;48.000;9.654;2023-03-15T15:15:18;8.50;99.90
20885;DHT22;10602;48.000;9.654;2023-03-15T15:17:41;8.50;99.90
20885;DHT22;10602;48.000;9.654;2023-03-15T15:20:10;8.50;99.90
20885;DHT22;10602;48.000;9.654;2023-03-15T15:22:39;8.60;99.90
20885;DHT22;10602;48.000;9.654;2023-03-15T15:27:43;8.20;99.90
20885;DHT22;10602;48.000;9.654;2023-03-15T15:32:39;8.00;99.90
20885;DHT22;10602;48.000;9.654;2023-03-15T15:35:10;8.00;99.90
20885;DHT22;10602;48.000;9.654;2023-03-15T15:37:39;7.90;99.90
20885;DHT22;10602;48.000;9.654;2023-03-15T15:40:41;7.70;99.90
20885;DHT22;10602;48.000;9.654;2023-03-15T15:42:44;7.60;99.90
20885;DHT22;10602;48.000;9.654;2023-03-15T15:45:13;7.70;99.90
20885;DHT22;10602;48.000;9.654;2023-03-15T15:47:45;7.60;99.90
20885;DHT22;10602;48.000;9.654;2023-03-15T15:50:18;7.50;99.90
20885;DHT22;10602;48.000;9.654;2023-03-15T15:52:49;7.60;99.90
20885;DHT22;10602;48.000;9.654;2023-03-15T15:55:22;7.60;99.90
20885;DHT22;10602;48.000;9.654;2023-03-15T15:57:50;7.70;99.90
20885;DHT22;10602;48.000;9.654;2023-03-15T16:03:14;7.80;99.90
20885;DHT22;10602;48.000;9.654;2023-03-15T16:05:47;7.90;1.00
20885;DHT22;10602;48.000;9.654;2023-03-15T16:08:23;7.90;1.00
20885;DHT22;10602;48.000;9.654;2023-03-15T16:11:03;7.80;1.00
20885;DHT22;10602;48.000;9.654;2023-03-15T16:13:47;7.70;1.00
20885;DHT22;10602;48.000;9.654;2023-03-15T16:16:35;7.70;1.00
20885;DHT22;10602;48.000;9.654;2023-03-15T16:22:28;7.50;99.90
20885;DHT22;10602;48.000;9.654;2023-03-15T16:25:01;7.20;99.90
20885;DHT22;10602;48.000;9.654;2023-03-15T16:27:48;7.20;99.90
20885;DHT22;10602;48.000;9.654;2023-03-15T16:30:26;7.10;99.90
20885;DHT22;10602;48.000;9.654;2023-03-15T16:32:58;7.10;99.90
20885;DHT22;10602;48.000;9.654;2023-03-15T16:35:33;7.20;1.00
20885;DHT22;10602;48.000;9.654;2023-03-15T16:40:57;7.00;1.00
20885;DHT22;10602;48.000;9.654;2023-03-15T16:43:21;7.00;1.00
20885;DHT22;10602;48.000;9.654;2023-03-15T16:46:01;7.00;1.00
20885;DHT22;10602;48.000;9.654;2023-03-15T16:48:32;7.00;1.00
20885;DHT22;10602;48.000;9.654;2023-03-15T16:51:02;6.90;1.00
20885;DHT22;10602;48.000;9.654;2023-03-15T16:56:34;6.90;1.00
20885;DHT22;10602;48.000;9.654;2023-03-15T16:59:02;6.90;1.00
20885;DHT22;10602;48.000;9.654;2023-03-15T17:01:44;6.70;1.00
20885;DHT22;10602;48.000;9.654;2023-03-15T17:04:01;6.70;1.00
20885;DHT22;10602;48.000;9.654;2023-03-15T17:06:29;6.70;1.00
20885;DHT22;10602;48.000;9.654;2023-03-15T17:09:09;6.60;1.00
20885;DHT22;10602;48.000;9.654;2023-03-15T17:11:37;6.60;1.00
20885;DHT22;10602;48.000;9.654;2023-03-15T17:14:06;6.60;1.00
20885;DHT22;10602;48.000;9.654;2023-03-15T17:16:34;6.60;1.00
20885;DHT22;10602;48.000;9.654;2023-03-15T17:19:02;6.50;1.00
20885;DHT22;10602;48.000;9.654;2023-03-15T17:21:33;6.40;1.00
20885;DHT22;10602;48.000;9.654;2023-03-15T17:24:02;6.30;1.00
20885;DHT22;10602;48.000;9.654;2023-03-15T17:26:32;6.30;1.00
20885;DHT22;10602;48.000;9.654;2023-03-15T17:29:02;6.20;1.00
20885;DHT22;10602;48.000;9.654;2023-03-15T17:31:30;6.20;1.00
20885;DHT22;10602;48.000;9.654;2023-03-15T17:34:00;6.10;1.00
20885;DHT22;10602;48.000;9.654;2023-03-15T17:36:32;6.10;1.00